createdAt,value
2023-03-14T00:00:02.566Z,85.63
2023-03-14T00:01:02.546Z,85.63
2023-03-14T00:02:02.538Z,85.32
2023-03-14T00:03:02.491Z,85.42
2023-03-14T00:04:02.536Z,85.42
2023-03-14T00:05:02.494Z,85.22
2023-03-14T00:06:02.469Z,85.12
2023-03-14T00:07:02.485Z,85.12
2023-03-14T00:08:02.439Z,85.12
2023-03-14T00:09:02.435Z,85.12
2023-03-14T00:10:02.449Z,85.22
2023-03-14T00:11:02.392Z,85.22
2023-03-14T00:12:02.433Z,85.22
2023-03-14T00:13:02.389Z,85.42
2023-03-14T00:14:02.464Z,85.53
2023-03-14T00:15:02.340Z,85.42
2023-03-14T00:16:02.392Z,85.53
2023-03-14T00:17:02.369Z,85.63
2023-03-14T00:18:02.330Z,85.77
2023-03-14T00:19:02.313Z,85.83
2023-03-14T00:20:02.288Z,85.88
2023-03-14T00:21:02.296Z,85.67
2023-03-14T00:22:02.273Z,85.67
2023-03-14T00:23:02.250Z,85.73
2023-03-14T00:24:02.266Z,85.67
2023-03-14T00:25:02.212Z,85.53
2023-03-14T00:26:02.197Z,85.53
2023-03-14T00:27:02.214Z,85.42
2023-03-14T00:28:02.186Z,85.53
2023-03-14T00:29:02.184Z,85.53
2023-03-14T00:30:02.191Z,85.53
2023-03-14T00:31:02.152Z,85.53
2023-03-14T00:32:02.171Z,85.42
2023-03-14T00:33:02.132Z,85.12
2023-03-14T00:34:02.109Z,85.02
2023-03-14T00:35:02.087Z,84.81
2023-03-14T00:36:02.130Z,84.50
2023-03-14T00:37:02.119Z,84.50
2023-03-14T00:38:02.054Z,84.20
2023-03-14T00:39:02.038Z,84.30
2023-03-14T00:40:02.070Z,84.26
2023-03-14T00:41:02.008Z,84.16
2023-03-14T00:42:02.029Z,84.06
2023-03-14T00:43:02.003Z,83.95
2023-03-14T00:44:02.001Z,83.85
2023-03-14T00:45:01.953Z,83.85
2023-03-14T00:46:01.981Z,83.75
2023-03-14T00:47:02.101Z,83.34
2023-03-14T00:48:01.971Z,83.24
2023-03-14T00:49:01.932Z,83.24
2023-03-14T00:50:01.909Z,83.24
2023-03-14T00:51:01.897Z,83.14
2023-03-14T00:52:01.887Z,83.04
2023-03-14T00:53:01.878Z,82.83
2023-03-14T00:54:02.807Z,82.83
2023-03-14T00:55:01.806Z,82.83
2023-03-14T00:56:01.825Z,83.14
2023-03-14T00:57:01.857Z,84.67
2023-03-14T00:58:01.775Z,87.26
2023-03-14T00:59:01.790Z,89.56
2023-03-14T01:00:01.796Z,91.13
2023-03-14T01:01:01.764Z,92.40
2023-03-14T01:02:01.832Z,93.26
2023-03-14T01:03:01.780Z,94.33
2023-03-14T01:04:01.742Z,94.54
2023-03-14T01:05:01.693Z,95.20
2023-03-14T01:06:01.674Z,95.75
2023-03-14T01:07:01.740Z,96.47
2023-03-14T01:08:01.652Z,97.29
2023-03-14T01:09:01.643Z,97.70
2023-03-14T01:10:01.655Z,98.11
2023-03-14T01:11:01.618Z,98.42
2023-03-14T01:12:01.624Z,98.52
2023-03-14T01:13:01.632Z,98.83
2023-03-14T01:14:01.582Z,99.03
2023-03-14T01:15:01.612Z,99.13
2023-03-14T01:16:01.578Z,99.34
2023-03-14T01:17:01.601Z,99.54
2023-03-14T01:18:01.548Z,99.75
2023-03-14T01:19:01.513Z,99.75
2023-03-14T01:20:01.555Z,99.85
2023-03-14T01:21:01.558Z,99.85
2023-03-14T01:22:01.493Z,99.75
2023-03-14T01:23:01.491Z,99.85
2023-03-14T01:24:01.460Z,99.85
2023-03-14T01:25:01.433Z,99.85
2023-03-14T01:26:01.444Z,99.95
2023-03-14T01:27:01.507Z,99.85
2023-03-14T01:28:01.372Z,99.85
2023-03-14T01:29:01.424Z,99.85
2023-03-14T01:30:01.419Z,99.85
2023-03-14T01:31:01.407Z,99.75
2023-03-14T01:32:01.377Z,99.75
2023-03-14T01:33:01.367Z,99.60
2023-03-14T01:34:01.336Z,99.40
2023-03-14T01:35:01.293Z,99.40
2023-03-14T01:36:01.319Z,99.40
2023-03-14T01:37:01.441Z,99.29
2023-03-14T01:38:01.269Z,99.19
2023-03-14T01:39:01.252Z,98.99
2023-03-14T01:40:01.232Z,98.88
2023-03-14T01:41:01.273Z,98.78
2023-03-14T01:42:01.208Z,98.68
2023-03-14T01:43:01.242Z,98.68
2023-03-14T01:44:01.207Z,98.58
2023-03-14T01:45:01.180Z,98.47
2023-03-14T01:46:01.249Z,98.27
2023-03-14T01:47:01.158Z,98.37
2023-03-14T01:48:01.156Z,98.47
2023-03-14T01:49:01.152Z,98.47
2023-03-14T01:50:01.150Z,98.47
2023-03-14T01:51:01.116Z,98.47
2023-03-14T01:52:01.090Z,98.58
2023-03-14T01:53:01.164Z,98.47
2023-03-14T01:54:01.083Z,98.47
2023-03-14T01:55:01.065Z,98.47
2023-03-14T01:56:01.032Z,98.58
2023-03-14T01:57:01.042Z,98.58
2023-03-14T01:58:01.039Z,98.68
2023-03-14T01:59:01.015Z,98.68
2023-03-14T02:00:00.997Z,98.78
2023-03-14T02:01:01.055Z,98.88
2023-03-14T02:02:00.944Z,98.88
2023-03-14T02:03:00.987Z,98.88
2023-03-14T02:04:00.918Z,98.88
2023-03-14T02:05:00.959Z,98.78
2023-03-14T02:06:00.914Z,98.78
2023-03-14T02:07:00.931Z,98.88
2023-03-14T02:08:00.930Z,98.78
2023-03-14T02:09:00.860Z,98.78
2023-03-14T02:10:00.865Z,98.78
2023-03-14T02:11:00.840Z,98.78
2023-03-14T02:12:00.841Z,98.88
2023-03-14T02:13:00.911Z,98.88
2023-03-14T02:14:00.854Z,98.88
2023-03-14T02:15:00.800Z,98.78
2023-03-14T02:16:00.832Z,98.68
2023-03-14T02:17:00.793Z,98.47
2023-03-14T02:18:00.749Z,98.37
2023-03-14T02:19:00.810Z,98.27
2023-03-14T02:20:00.725Z,98.16
2023-03-14T02:21:00.727Z,98.07
2023-03-14T02:22:00.682Z,97.86
2023-03-14T02:23:00.662Z,97.75
2023-03-14T02:24:00.687Z,97.65
2023-03-14T02:25:00.673Z,97.65
2023-03-14T02:26:00.635Z,97.75
2023-03-14T02:27:00.623Z,97.75
2023-03-14T02:28:00.608Z,97.65
2023-03-14T02:29:00.629Z,97.65
2023-03-14T02:30:00.591Z,97.65
2023-03-14T02:31:00.602Z,97.45
2023-03-14T02:32:00.675Z,97.45
2023-03-14T02:33:00.636Z,97.45
2023-03-14T02:34:00.545Z,97.45
2023-03-14T02:35:00.517Z,97.55
2023-03-14T02:36:00.554Z,97.55
2023-03-14T02:37:00.478Z,97.65
2023-03-14T02:38:00.457Z,97.65
2023-03-14T02:39:00.522Z,97.65
2023-03-14T02:40:00.425Z,97.65
2023-03-14T02:41:00.434Z,97.75
2023-03-14T02:42:00.447Z,97.86
2023-03-14T02:43:00.405Z,97.86
2023-03-14T02:44:00.430Z,97.86
2023-03-14T02:45:00.425Z,97.96
2023-03-14T02:46:00.481Z,97.96
2023-03-14T02:47:00.386Z,97.96
2023-03-14T02:48:00.351Z,98.07
2023-03-14T02:49:00.357Z,98.07
2023-03-14T02:50:00.303Z,98.07
2023-03-14T02:51:00.304Z,98.07
2023-03-14T02:52:00.297Z,98.16
2023-03-14T02:53:00.274Z,98.16
2023-03-14T02:54:00.284Z,98.16
2023-03-14T02:55:00.247Z,98.16
2023-03-14T02:56:00.273Z,98.27
2023-03-14T02:57:00.233Z,98.27
2023-03-14T02:58:00.228Z,98.27
2023-03-14T02:59:00.262Z,98.27
2023-03-14T03:00:00.159Z,98.37
2023-03-14T03:01:00.279Z,98.27
2023-03-14T03:02:00.170Z,98.37
2023-03-14T03:03:00.184Z,98.37
2023-03-14T03:04:00.164Z,98.37
2023-03-14T03:05:00.143Z,98.27
2023-03-14T03:06:00.129Z,98.37
2023-03-14T03:07:00.129Z,98.37
2023-03-14T03:08:00.125Z,98.27
2023-03-14T03:09:00.131Z,98.27
2023-03-14T03:10:00.068Z,98.27
2023-03-14T03:11:00.073Z,98.27
2023-03-14T03:12:00.045Z,98.16
2023-03-14T03:13:00.022Z,98.27
2023-03-14T03:13:59.998Z,98.27
2023-03-14T03:15:00.014Z,98.27
2023-03-14T03:15:59.961Z,98.37
2023-03-14T03:17:00.038Z,98.37
2023-03-14T03:17:59.990Z,98.37
2023-03-14T03:19:00.023Z,98.47
2023-03-14T03:19:59.936Z,98.47
2023-03-14T03:20:59.946Z,98.47
2023-03-14T03:21:59.911Z,98.47
2023-03-14T03:22:59.923Z,98.58
2023-03-14T03:23:59.898Z,98.58
2023-03-14T03:24:59.899Z,98.47
2023-03-14T03:25:59.860Z,98.47
2023-03-14T03:26:59.876Z,98.47
2023-03-14T03:27:59.814Z,98.47
2023-03-14T03:28:59.820Z,98.47
2023-03-14T03:29:59.866Z,98.47
2023-03-14T03:30:59.877Z,98.58
2023-03-14T03:31:59.796Z,98.47
2023-03-14T03:32:59.814Z,98.47
2023-03-14T03:33:59.768Z,98.47
2023-03-14T03:34:59.753Z,98.52
2023-03-14T03:35:59.771Z,98.47
2023-03-14T03:36:59.708Z,98.52
2023-03-14T03:37:59.702Z,98.52
2023-03-14T03:38:59.684Z,98.62
2023-03-14T03:39:59.720Z,98.72
2023-03-14T03:40:59.651Z,98.83
2023-03-14T03:41:59.652Z,98.83
2023-03-14T03:42:59.634Z,98.88
2023-03-14T03:43:59.606Z,98.88
2023-03-14T03:44:59.877Z,98.99
2023-03-14T03:45:59.641Z,98.99
2023-03-14T03:46:59.577Z,98.99
2023-03-14T03:47:59.563Z,98.99
2023-03-14T03:48:59.547Z,99.09
2023-03-14T03:49:59.521Z,99.19
2023-03-14T03:50:59.572Z,99.19
2023-03-14T03:51:59.547Z,99.29
2023-03-14T03:52:59.530Z,99.29
2023-03-14T03:53:59.472Z,99.29
2023-03-14T03:54:59.484Z,99.29
2023-03-14T03:55:59.499Z,99.40
2023-03-14T03:56:59.470Z,99.40
2023-03-14T03:57:59.472Z,99.29
2023-03-14T03:58:59.464Z,99.29
2023-03-14T03:59:59.418Z,99.40
2023-03-14T04:00:59.402Z,99.40
2023-03-14T04:01:59.419Z,99.40
2023-03-14T04:02:59.374Z,99.40
2023-03-14T04:03:59.443Z,99.50
2023-03-14T04:04:59.342Z,99.50
2023-03-14T04:05:59.339Z,99.50
2023-03-14T04:06:59.373Z,99.50
2023-03-14T04:07:59.305Z,99.50
2023-03-14T04:08:59.318Z,99.50
2023-03-14T04:10:07.153Z,99.40
2023-03-14T04:10:59.285Z,99.40
2023-03-14T04:11:59.259Z,99.29
2023-03-14T04:12:59.989Z,99.29
2023-03-14T04:13:59.242Z,99.19
2023-03-14T04:14:59.244Z,98.93
2023-03-14T04:15:59.269Z,98.83
2023-03-14T04:16:59.190Z,98.88
2023-03-14T04:17:59.181Z,98.88
2023-03-14T04:18:59.159Z,98.88
2023-03-14T04:19:59.173Z,98.88
2023-03-14T04:20:59.159Z,98.88
2023-03-14T04:21:59.107Z,98.78
2023-03-14T04:22:59.137Z,98.78
2023-03-14T04:23:59.105Z,98.68
2023-03-14T04:24:59.126Z,98.58
2023-03-14T04:25:59.056Z,98.58
2023-03-14T04:26:59.081Z,98.58
2023-03-14T04:27:59.089Z,98.68
2023-03-14T04:28:59.061Z,98.68
2023-03-14T04:29:59.039Z,98.68
2023-03-14T04:30:59.068Z,98.78
2023-03-14T04:31:58.981Z,98.58
2023-03-14T04:32:59.066Z,98.58
2023-03-14T04:33:58.956Z,98.68
2023-03-14T04:34:58.945Z,98.68
2023-03-14T04:35:58.965Z,98.68
2023-03-14T04:36:58.960Z,98.68
2023-03-14T04:37:58.967Z,98.68
2023-03-14T04:38:58.893Z,98.78
2023-03-14T04:39:58.906Z,98.78
2023-03-14T04:40:58.895Z,98.78
2023-03-14T04:41:58.883Z,98.78
2023-03-14T04:42:58.896Z,98.78
2023-03-14T04:43:58.821Z,98.78
2023-03-14T04:44:58.825Z,98.68
2023-03-14T04:45:58.814Z,98.68
2023-03-14T04:46:58.865Z,98.68
2023-03-14T04:47:58.790Z,98.68
2023-03-14T04:48:58.763Z,98.78
2023-03-14T04:49:58.770Z,98.88
2023-03-14T04:50:58.768Z,98.78
2023-03-14T04:51:58.728Z,98.78
2023-03-14T04:52:58.756Z,98.88
2023-03-14T04:53:58.718Z,98.88
2023-03-14T04:54:58.721Z,98.78
2023-03-14T04:55:58.658Z,98.88
2023-03-14T04:56:58.686Z,98.88
2023-03-14T04:57:58.697Z,98.88
2023-03-14T04:58:58.667Z,98.88
2023-03-14T04:59:58.635Z,98.88
2023-03-14T05:00:58.644Z,98.88
2023-03-14T05:01:58.673Z,98.88
2023-03-14T05:02:58.661Z,98.88
2023-03-14T05:03:58.560Z,98.99
2023-03-14T05:04:58.555Z,98.99
2023-03-14T05:05:58.540Z,98.99
2023-03-14T05:06:58.538Z,98.99
2023-03-14T05:07:58.582Z,98.99
2023-03-14T05:08:58.521Z,98.99
2023-03-14T05:09:58.499Z,98.99
2023-03-14T05:10:58.472Z,99.09
2023-03-14T05:11:58.481Z,99.09
2023-03-14T05:12:58.462Z,99.19
2023-03-14T05:13:58.430Z,99.09
2023-03-14T05:14:58.420Z,99.19
2023-03-14T05:15:58.401Z,99.09
2023-03-14T05:16:58.423Z,99.09
2023-03-14T05:17:58.450Z,99.09
2023-03-14T05:18:58.388Z,99.19
2023-03-14T05:19:58.343Z,99.19
2023-03-14T05:20:58.344Z,99.09
2023-03-14T05:21:58.307Z,98.99
2023-03-14T05:22:58.362Z,98.99
2023-03-14T05:23:58.314Z,98.99
2023-03-14T05:24:58.315Z,99.09
2023-03-14T05:25:58.305Z,99.09
2023-03-14T05:26:58.259Z,99.09
2023-03-14T05:27:58.266Z,98.88
2023-03-14T05:28:58.216Z,98.78
2023-03-14T05:29:58.247Z,98.68
2023-03-14T05:30:58.206Z,98.58
2023-03-14T05:31:58.187Z,98.37
2023-03-14T05:32:58.260Z,98.37
2023-03-14T05:33:58.170Z,98.27
2023-03-14T05:34:58.145Z,98.16
2023-03-14T05:35:58.195Z,98.16
2023-03-14T05:36:58.117Z,98.07
2023-03-14T05:37:58.168Z,97.96
2023-03-14T05:38:58.087Z,97.86
2023-03-14T05:39:58.108Z,97.65
2023-03-14T05:40:58.058Z,97.45
2023-03-14T05:41:58.066Z,97.24
2023-03-14T05:42:58.086Z,97.04
2023-03-14T05:43:58.047Z,96.94
2023-03-14T05:44:58.029Z,96.73
2023-03-14T05:45:58.101Z,96.63
2023-03-14T05:46:58.039Z,96.63
2023-03-14T05:47:58.009Z,96.73
2023-03-14T05:48:58.007Z,96.83
2023-03-14T05:49:57.980Z,96.73
2023-03-14T05:50:57.970Z,96.53
2023-03-14T05:51:57.979Z,96.42
2023-03-14T05:52:57.933Z,96.42
2023-03-14T05:53:57.955Z,96.22
2023-03-14T05:54:57.890Z,96.32
2023-03-14T05:55:58.321Z,96.32
2023-03-14T05:56:57.877Z,96.32
2023-03-14T05:57:57.886Z,96.32
2023-03-14T05:58:57.884Z,96.22
2023-03-14T05:59:57.877Z,96.12
2023-03-14T06:00:57.841Z,96.01
2023-03-14T06:01:57.819Z,96.12
2023-03-14T06:02:57.862Z,96.22
2023-03-14T06:03:57.844Z,96.42
2023-03-14T06:04:57.781Z,96.63
2023-03-14T06:05:57.767Z,96.73
2023-03-14T06:06:57.759Z,96.83
2023-03-14T06:07:57.749Z,97.04
2023-03-14T06:08:57.694Z,97.14
2023-03-14T06:09:57.740Z,97.24
2023-03-14T06:10:57.665Z,97.24
2023-03-14T06:11:57.705Z,97.34
2023-03-14T06:12:57.647Z,97.55
2023-03-14T06:13:57.669Z,97.65
2023-03-14T06:14:57.634Z,97.75
2023-03-14T06:15:57.623Z,97.86
2023-03-14T06:16:57.666Z,97.70
2023-03-14T06:17:57.600Z,97.80
2023-03-14T06:18:57.599Z,97.91
2023-03-14T06:19:57.571Z,98.00
2023-03-14T06:20:57.567Z,98.11
2023-03-14T06:21:57.576Z,98.11
2023-03-14T06:22:57.546Z,98.11
2023-03-14T06:23:57.521Z,98.21
2023-03-14T06:24:57.529Z,98.21
2023-03-14T06:25:57.514Z,98.32
2023-03-14T06:26:57.469Z,98.21
2023-03-14T06:27:57.496Z,98.21
2023-03-14T06:28:57.444Z,98.32
2023-03-14T06:29:57.467Z,98.21
2023-03-14T06:30:57.451Z,98.32
2023-03-14T06:31:57.470Z,98.16
2023-03-14T06:32:57.476Z,98.16
2023-03-14T06:33:57.406Z,98.07
2023-03-14T06:34:57.371Z,97.86
2023-03-14T06:35:57.414Z,97.75
2023-03-14T06:36:57.367Z,97.65
2023-03-14T06:37:57.340Z,97.75
2023-03-14T06:38:57.300Z,97.75
2023-03-14T06:39:57.347Z,97.75
2023-03-14T06:40:57.292Z,97.75
2023-03-14T06:41:57.300Z,97.55
2023-03-14T06:42:57.261Z,97.45
2023-03-14T06:43:57.286Z,97.45
2023-03-14T06:44:57.257Z,97.45
2023-03-14T06:45:57.355Z,97.34
2023-03-14T06:46:57.201Z,97.30
2023-03-14T06:47:57.222Z,97.34
2023-03-14T06:48:57.192Z,97.34
2023-03-14T06:49:57.182Z,97.30
2023-03-14T06:50:57.968Z,97.30
2023-03-14T06:51:57.170Z,97.40
2023-03-14T06:52:57.255Z,97.40
2023-03-14T06:53:57.128Z,97.20
2023-03-14T06:54:57.128Z,97.09
2023-03-14T06:55:57.129Z,97.20
2023-03-14T06:56:57.101Z,97.09
2023-03-14T06:57:57.073Z,97.09
2023-03-14T06:58:57.045Z,97.20
2023-03-14T06:59:57.084Z,97.20
2023-03-14T07:00:57.051Z,97.09
2023-03-14T07:01:57.025Z,97.09
2023-03-14T07:02:57.017Z,96.99
2023-03-14T07:03:57.044Z,96.79
2023-03-14T07:04:57.005Z,96.69
2023-03-14T07:05:56.985Z,96.58
2023-03-14T07:06:56.985Z,96.48
2023-03-14T07:07:56.950Z,96.38
2023-03-14T07:08:56.951Z,96.38
2023-03-14T07:09:56.934Z,96.48
2023-03-14T07:10:56.915Z,96.28
2023-03-14T07:11:56.914Z,96.28
2023-03-14T07:12:56.892Z,96.28
2023-03-14T07:13:56.899Z,96.07
2023-03-14T07:14:59.127Z,96.07
2023-03-14T07:15:57.864Z,95.97
2023-03-14T07:16:56.842Z,95.87
2023-03-14T07:17:56.864Z,95.76
2023-03-14T07:18:56.779Z,95.51
2023-03-14T07:19:56.795Z,95.41
2023-03-14T07:20:56.803Z,95.31
2023-03-14T07:21:56.793Z,95.31
2023-03-14T07:22:56.725Z,95.10
2023-03-14T07:23:56.727Z,94.90
2023-03-14T07:24:56.753Z,94.90
2023-03-14T07:25:56.704Z,94.90
2023-03-14T07:26:56.707Z,94.90
2023-03-14T07:27:56.674Z,95.00
2023-03-14T07:28:56.683Z,95.00
2023-03-14T07:29:56.706Z,94.90
2023-03-14T07:30:56.634Z,94.85
2023-03-14T07:31:56.657Z,94.85
2023-03-14T07:32:56.808Z,94.65
2023-03-14T07:33:56.622Z,94.65
2023-03-14T07:34:56.612Z,94.45
2023-03-14T07:35:56.589Z,94.45
2023-03-14T07:36:56.574Z,94.45
2023-03-14T07:37:56.576Z,94.34
2023-03-14T07:38:56.544Z,94.34
2023-03-14T07:39:56.525Z,94.24
2023-03-14T07:40:56.551Z,94.24
2023-03-14T07:41:56.930Z,94.45
2023-03-14T07:42:56.510Z,94.34
2023-03-14T07:43:56.502Z,94.14
2023-03-14T07:44:56.494Z,94.14
2023-03-14T07:45:59.620Z,94.24
2023-03-14T07:46:56.567Z,94.45
2023-03-14T07:47:56.454Z,94.55
2023-03-14T07:48:56.397Z,94.45
2023-03-14T07:49:56.548Z,94.24
2023-03-14T07:50:56.441Z,94.34
2023-03-14T07:51:56.365Z,94.45
2023-03-14T07:52:56.375Z,94.55
2023-03-14T07:53:56.343Z,94.75
2023-03-14T07:54:56.341Z,94.65
2023-03-14T07:55:56.361Z,94.65
2023-03-14T07:56:56.319Z,94.65
2023-03-14T07:57:56.322Z,94.75
2023-03-14T07:58:56.307Z,94.96
2023-03-14T07:59:56.291Z,94.96
2023-03-14T08:00:56.289Z,95.06
2023-03-14T08:01:56.273Z,95.06
2023-03-14T08:02:56.239Z,95.17
2023-03-14T08:03:56.301Z,95.06
2023-03-14T08:04:56.237Z,94.96
2023-03-14T08:05:56.204Z,95.17
2023-03-14T08:06:56.220Z,95.26
2023-03-14T08:07:56.189Z,95.47
2023-03-14T08:08:56.135Z,95.57
2023-03-14T08:09:56.239Z,95.57
2023-03-14T08:10:56.325Z,95.63
2023-03-14T08:11:58.254Z,95.73
2023-03-14T08:12:56.121Z,95.43
2023-03-14T08:13:56.076Z,95.22
2023-03-14T08:14:56.092Z,95.32
2023-03-14T08:15:56.222Z,95.12
2023-03-14T08:16:56.050Z,94.87
2023-03-14T08:17:56.102Z,94.67
2023-03-14T08:18:56.002Z,94.67
2023-03-14T08:19:56.034Z,94.67
2023-03-14T08:20:55.980Z,94.67
2023-03-14T08:21:56.025Z,94.67
2023-03-14T08:22:55.987Z,94.36
2023-03-14T08:23:55.984Z,94.46
2023-03-14T08:24:55.937Z,94.56
2023-03-14T08:25:55.941Z,94.56
2023-03-14T08:26:55.952Z,94.46
2023-03-14T08:27:55.944Z,94.46
2023-03-14T08:28:55.878Z,94.42
2023-03-14T08:29:55.894Z,94.32
2023-03-14T08:30:55.942Z,94.11
2023-03-14T08:31:56.074Z,94.21
2023-03-14T08:32:55.851Z,94.21
2023-03-14T08:33:55.856Z,94.52
2023-03-14T08:34:55.827Z,94.42
2023-03-14T08:35:55.907Z,94.62
2023-03-14T08:36:55.818Z,95.13
2023-03-14T08:37:55.762Z,94.97
2023-03-14T08:38:55.835Z,95.28
2023-03-14T08:39:55.804Z,95.38
2023-03-14T08:40:55.745Z,95.79
2023-03-14T08:41:55.770Z,96.20
2023-03-14T08:42:55.699Z,96.61
2023-03-14T08:43:55.787Z,96.81
2023-03-14T08:44:55.700Z,97.12
2023-03-14T08:45:55.696Z,97.33
2023-03-14T08:46:55.898Z,97.53
2023-03-14T08:47:55.689Z,97.63
2023-03-14T08:48:55.615Z,97.74
2023-03-14T08:49:55.690Z,97.94
2023-03-14T08:50:55.600Z,97.99
2023-03-14T08:51:55.622Z,97.99
2023-03-14T08:52:55.592Z,97.94
2023-03-14T08:53:55.636Z,97.94
2023-03-14T08:54:55.549Z,97.94
2023-03-14T08:55:55.527Z,98.04
2023-03-14T08:56:55.528Z,98.14
2023-03-14T08:57:55.539Z,98.35
2023-03-14T08:58:55.523Z,98.45
2023-03-14T08:59:55.512Z,98.49
2023-03-14T09:00:55.498Z,98.49
2023-03-14T09:01:55.505Z,98.70
2023-03-14T09:02:55.564Z,99.01
2023-03-14T09:03:55.546Z,99.01
2023-03-14T09:04:55.719Z,99.11
2023-03-14T09:05:55.441Z,99.21
2023-03-14T09:06:55.377Z,99.21
2023-03-14T09:07:55.432Z,99.21
2023-03-14T09:08:55.400Z,99.31
2023-03-14T09:09:55.344Z,99.31
2023-03-14T09:10:55.382Z,99.11
2023-03-14T09:11:55.356Z,99.21
2023-03-14T09:12:55.325Z,99.01
2023-03-14T09:13:55.340Z,99.01
2023-03-14T09:14:55.284Z,99.11
2023-03-14T09:15:55.281Z,99.21
2023-03-14T09:16:55.350Z,99.11
2023-03-14T09:17:55.268Z,98.90
2023-03-14T09:18:55.295Z,98.70
2023-03-14T09:19:55.251Z,98.49
2023-03-14T09:20:55.197Z,98.19
2023-03-14T09:21:55.210Z,98.19
2023-03-14T09:22:55.200Z,98.19
2023-03-14T09:23:55.164Z,98.19
2023-03-14T09:24:55.176Z,98.08
2023-03-14T09:25:55.173Z,97.98
2023-03-14T09:26:55.113Z,98.08
2023-03-14T09:27:55.150Z,97.88
2023-03-14T09:28:57.038Z,97.88
2023-03-14T09:29:55.085Z,97.98
2023-03-14T09:30:55.095Z,98.08
2023-03-14T09:31:55.110Z,97.98
2023-03-14T09:32:55.117Z,98.19
2023-03-14T09:33:55.040Z,98.19
2023-03-14T09:34:55.039Z,98.24
2023-03-14T09:35:55.098Z,97.77
2023-03-14T09:36:54.991Z,97.81
2023-03-14T09:37:55.059Z,98.16
2023-03-14T09:38:55.020Z,98.27
2023-03-14T09:39:54.988Z,98.62
2023-03-14T09:40:54.954Z,98.21
2023-03-14T09:41:54.964Z,97.13
2023-03-14T09:42:54.952Z,97.33
2023-03-14T09:43:54.909Z,96.82
2023-03-14T09:44:54.946Z,96.92
2023-03-14T09:45:54.909Z,97.48
2023-03-14T09:46:54.908Z,96.66
2023-03-14T09:47:59.411Z,96.15
2023-03-14T09:48:55.837Z,96.30
2023-03-14T09:49:54.826Z,96.60
2023-03-14T09:50:54.825Z,97.02
2023-03-14T09:51:54.812Z,97.32
2023-03-14T09:52:54.793Z,97.42
2023-03-14T09:53:54.796Z,97.42
2023-03-14T09:54:54.778Z,97.83
2023-03-14T09:55:54.757Z,98.14
2023-03-14T09:56:54.748Z,98.19
2023-03-14T09:57:54.747Z,98.50
2023-03-14T09:58:54.729Z,98.70
2023-03-14T09:59:54.671Z,98.70
2023-03-14T10:00:54.703Z,99.01
2023-03-14T10:01:54.736Z,99.21
2023-03-14T10:02:54.689Z,99.32
2023-03-14T10:03:54.743Z,99.52
2023-03-14T10:04:54.617Z,99.52
2023-03-14T10:05:54.612Z,99.32
2023-03-14T10:06:54.601Z,99.42
2023-03-14T10:07:54.589Z,99.42
2023-03-14T10:08:54.577Z,99.11
2023-03-14T10:09:54.571Z,99.21
2023-03-14T10:10:54.739Z,99.01
2023-03-14T10:11:54.979Z,98.91
2023-03-14T10:12:54.999Z,99.01
2023-03-14T10:13:54.562Z,99.21
2023-03-14T10:14:54.516Z,99.32
2023-03-14T10:15:54.503Z,99.42
2023-03-14T10:16:54.587Z,99.32
2023-03-14T10:17:54.490Z,99.21
2023-03-14T10:18:54.567Z,99.11
2023-03-14T10:19:54.436Z,98.60
2023-03-14T10:20:54.404Z,98.50
2023-03-14T10:21:54.431Z,98.50
2023-03-14T10:22:54.409Z,97.92
2023-03-14T10:23:54.378Z,97.78
2023-03-14T10:24:54.370Z,97.67
2023-03-14T10:25:54.361Z,97.99
2023-03-14T10:26:54.361Z,97.99
2023-03-14T10:27:54.340Z,97.67
2023-03-14T10:28:54.333Z,97.37
2023-03-14T10:29:54.317Z,97.16
2023-03-14T10:30:54.326Z,96.95
2023-03-14T10:31:54.557Z,96.65
2023-03-14T10:32:54.304Z,96.65
2023-03-14T10:33:54.272Z,96.69
2023-03-14T10:34:54.223Z,97.06
2023-03-14T10:35:54.329Z,97.41
2023-03-14T10:36:54.208Z,97.82
2023-03-14T10:37:54.189Z,98.24
2023-03-14T10:38:54.212Z,98.38
2023-03-14T10:39:54.156Z,98.79
2023-03-14T10:40:54.181Z,99.10
2023-03-14T10:41:54.233Z,99.41
2023-03-14T10:42:54.168Z,99.82
2023-03-14T10:43:54.262Z,99.99
2023-03-14T10:44:54.107Z,99.99
2023-03-14T10:45:54.146Z,99.99
2023-03-14T10:46:54.791Z,99.99
2023-03-14T10:47:54.248Z,99.99
2023-03-14T10:48:54.068Z,99.97
2023-03-14T10:49:54.074Z,99.66
2023-03-14T10:50:54.025Z,99.82
2023-03-14T10:51:54.000Z,99.93
2023-03-14T10:53:03.193Z,99.93
2023-03-14T10:53:55.020Z,99.72
2023-03-14T10:54:54.030Z,99.72
2023-03-14T10:55:53.976Z,99.51
2023-03-14T10:56:54.045Z,98.90
2023-03-14T10:57:53.915Z,98.33
2023-03-14T10:58:53.944Z,98.44
2023-03-14T10:59:53.950Z,98.54
2023-03-14T11:00:53.911Z,98.39
2023-03-14T11:01:53.964Z,98.29
2023-03-14T11:02:53.914Z,97.67
2023-03-14T11:03:53.885Z,97.27
2023-03-14T11:04:54.017Z,97.53
2023-03-14T11:05:53.901Z,97.53
2023-03-14T11:06:53.816Z,96.81
2023-03-14T11:07:53.804Z,97.12
2023-03-14T11:08:53.819Z,97.32
2023-03-14T11:09:53.808Z,97.17
2023-03-14T11:10:53.767Z,97.07
2023-03-14T11:11:53.759Z,97.38
2023-03-14T11:12:53.801Z,96.45
2023-03-14T11:13:53.751Z,97.03
2023-03-14T11:14:53.744Z,97.44
2023-03-14T11:15:53.860Z,96.92
2023-03-14T11:16:53.683Z,97.13
2023-03-14T11:17:53.665Z,96.72
2023-03-14T11:18:53.786Z,96.51
2023-03-14T11:19:53.704Z,95.69
2023-03-14T11:20:53.700Z,96.10
2023-03-14T11:21:53.640Z,95.65
2023-03-14T11:22:53.641Z,95.18
2023-03-14T11:23:53.630Z,94.26
2023-03-14T11:24:53.584Z,94.05
2023-03-14T11:25:53.553Z,94.77
2023-03-14T11:26:53.559Z,95.69
2023-03-14T11:27:53.604Z,96.31
2023-03-14T11:28:53.640Z,96.25
2023-03-14T11:29:53.534Z,95.89
2023-03-14T11:30:53.607Z,96.65
2023-03-14T11:31:53.482Z,97.27
2023-03-14T11:32:53.578Z,97.82
2023-03-14T11:33:53.498Z,98.33
2023-03-14T11:34:53.449Z,98.49
2023-03-14T11:35:53.500Z,98.69
2023-03-14T11:36:53.444Z,99.21
2023-03-14T11:37:54.010Z,99.72
2023-03-14T11:38:53.827Z,99.72
2023-03-14T11:39:53.399Z,99.99
2023-03-14T11:40:53.720Z,99.99
2023-03-14T11:41:53.872Z,99.99
2023-03-14T11:42:53.341Z,99.99
2023-03-14T11:43:53.375Z,99.99
2023-03-14T11:44:53.356Z,99.99
2023-03-14T11:45:53.335Z,99.99
2023-03-14T11:46:53.429Z,99.99
2023-03-14T11:47:53.281Z,99.99
2023-03-14T11:48:53.318Z,99.99
2023-03-14T11:49:53.279Z,99.99
2023-03-14T11:50:53.286Z,99.99
2023-03-14T11:51:53.285Z,99.87
2023-03-14T11:52:53.267Z,99.87
2023-03-14T11:53:53.206Z,99.97
2023-03-14T11:54:53.230Z,99.66
2023-03-14T11:55:53.277Z,99.46
2023-03-14T11:56:53.192Z,99.46
2023-03-14T11:57:53.201Z,99.35
2023-03-14T11:58:53.192Z,99.46
2023-03-14T11:59:53.117Z,98.68
2023-03-14T12:00:53.115Z,98.16
2023-03-14T12:01:53.226Z,98.06
2023-03-14T12:02:53.085Z,98.27
2023-03-14T12:03:53.169Z,97.60
2023-03-14T12:04:53.081Z,97.08
2023-03-14T12:05:53.036Z,96.97
2023-03-14T12:06:53.063Z,97.18
2023-03-14T12:07:53.056Z,96.97
2023-03-14T12:08:53.043Z,96.88
2023-03-14T12:09:53.013Z,96.77
2023-03-14T12:10:53.000Z,96.61
2023-03-14T12:11:52.956Z,96.41
2023-03-14T12:12:52.988Z,96.20
2023-03-14T12:13:52.963Z,95.89
2023-03-14T12:14:52.963Z,96.05
2023-03-14T12:15:52.933Z,96.15
2023-03-14T12:16:53.522Z,96.25
2023-03-14T12:17:52.900Z,95.84
2023-03-14T12:18:52.910Z,95.90
2023-03-14T12:19:52.850Z,96.11
2023-03-14T12:20:52.892Z,96.00
2023-03-14T12:21:52.835Z,95.39
2023-03-14T12:22:52.861Z,95.18
2023-03-14T12:23:52.872Z,95.45
2023-03-14T12:24:52.854Z,95.14
2023-03-14T12:25:52.862Z,95.03
2023-03-14T12:26:52.804Z,95.24
2023-03-14T12:27:52.776Z,95.14
2023-03-14T12:28:52.760Z,95.03
2023-03-14T12:29:52.747Z,94.83
2023-03-14T12:30:52.754Z,94.42
2023-03-14T12:31:52.748Z,92.97
2023-03-14T12:32:52.761Z,92.10
2023-03-14T12:33:52.691Z,92.30
2023-03-14T12:34:52.697Z,93.08
2023-03-14T12:35:52.765Z,92.92
2023-03-14T12:36:52.660Z,91.99
2023-03-14T12:37:52.617Z,91.99
2023-03-14T12:38:52.655Z,91.47
2023-03-14T12:39:52.624Z,91.38
2023-03-14T12:40:52.593Z,91.58
2023-03-14T12:41:52.606Z,91.38
2023-03-14T12:42:52.575Z,92.20
2023-03-14T12:43:52.573Z,91.68
2023-03-14T12:44:52.543Z,90.69
2023-03-14T12:45:52.547Z,90.08
2023-03-14T12:46:52.536Z,89.97
2023-03-14T12:47:52.513Z,88.84
2023-03-14T12:48:52.537Z,89.05
2023-03-14T12:49:52.454Z,89.05
2023-03-14T12:50:52.496Z,89.31
2023-03-14T12:51:52.667Z,89.11